Ansonia, OH

3:54 PM EDT on August 29, 2016 (GMT -0400)
Darke County | | Change Station

Elev 1007 ft 40.20 °N, 84.53 °W | Updated 19 minutes ago

Scattered Clouds
Scattered Clouds
86 °F
Feels Like 92 °F
N
5
Wind Variable Wind from East

Today
High -- | Low -- °F
--% Chance of Precip.
Yesterday
High -- | Low -- °F
Precip. -- in
Pressure 30.22 in
Visibility 7.0 miles
Clouds Scattered Clouds 3600 ft
Scattered Clouds 4200 ft
Scattered Clouds 5500 ft
Heat Index 92 °F
Dew Point 72 °F
Humidity 62%
Rainfall 0.05 in
Snow Depth Not available.
7:03 AM 8:14 PM
Waning Crescent, 7% visible
METAR KVES 291935Z AUTO 09004KT 7SM SCT036 SCT042 SCT055 30/22 A3022 RMK AO2
Pressure 30.22 in
Visibility 7.0 miles
Clouds Scattered Clouds 3600 ft
Scattered Clouds 4200 ft
Scattered Clouds 5500 ft
Heat Index 92 °F
Dew Point 72 °F
Humidity 62%
Rainfall 0.05 in
Snow Depth Not available.
7:03 AM 8:14 PM
Waning Crescent, 7% visible
METAR KVES 291935Z AUTO 09004KT 7SM SCT036 SCT042 SCT055 30/22 A3022 RMK AO2

10-Day Weather Forecast

Almanac

Astronomy

Aug. 29, 2016 Rise Set
Actual Time
Civil Twilight
Nautical Twilight
Astronomical Twilight
Moon
Length of Visible Light
Length of Day
Tomorrow will be .
, % of the Moon is Illuminated

Today's Extremes

State Highs State Lows

Community

WunderPhotos

Upload Photos

1,935,642 photos uploaded!

WunderBlog® & News

Nearby

Air Quality

  Air Quality AQ Index Pollutant
Not available.

Snow Depth

Station Depth Elevation

Earthquake Activity

City Distance Mag. Time & Date
Minimum magnitude displayed is 2.5.

Coastal Water Temperatures

Place Temperature

Stations

Nearby Weather Stations

Station Location Temp. Windchill Dew Point Humidity Wind Precip. Elev Updated Type
                   

Watches & Warnings

There are currently no watches in effect.